Time;durP1;ratioP1;P1;durP2;ratioP2;P2;SDS_P1;SDS_P2;PMS_P1;PMS_P2;Temp;Humidity;BMP_temperature;BMP_pressure;BME280_temperature;BME280_humidity;BME280_pressure;Samples;Min_cycle;Max_cycle;Signal;HPM_P1;HPM_P2
2023/09/01 00:00:22;;;;;;;0.10;0.10;;;14.00;99.90;;;;;;5035768;28;20099;-75
2023/09/01 00:02:47;;;;;;;0.57;0.47;;;14.00;99.90;;;;;;5035877;28;20028;-67
2023/09/01 00:05:13;;;;;;;0.13;0.13;;;13.90;99.90;;;;;;5034886;28;20040;-67
2023/09/01 00:07:39;;;;;;;0.23;0.23;;;13.90;99.90;;;;;;5034031;28;20108;-67
2023/09/01 00:10:05;;;;;;;0.10;0.10;;;13.90;99.90;;;;;;5034729;28;20038;-67
2023/09/01 00:12:31;;;;;;;0.10;0.10;;;14.00;99.90;;;;;;5042688;28;20443;-67
2023/09/01 00:14:57;;;;;;;1.27;0.30;;;14.00;99.90;;;;;;5043805;28;20033;-67
2023/09/01 00:17:23;;;;;;;0.30;0.30;;;14.00;99.90;;;;;;5048633;28;20036;-75
2023/09/01 00:19:49;;;;;;;0.43;0.20;;;14.00;99.90;;;;;;5037519;28;20049;-67
2023/09/01 00:22:14;;;;;;;0.13;0.13;;;13.90;99.90;;;;;;5035928;28;20043;-67
2023/09/01 00:24:40;;;;;;;0.20;0.20;;;14.00;99.90;;;;;;5040898;28;20048;-67
2023/09/01 00:27:06;;;;;;;0.10;0.10;;;14.10;99.90;;;;;;5044443;28;20323;-68
2023/09/01 00:29:33;;;;;;;0.00;0.00;;;14.20;99.90;;;;;;5040751;28;20053;-67
2023/09/01 00:31:59;;;;;;;0.40;0.40;;;14.30;99.90;;;;;;5034299;28;20021;-67
2023/09/01 00:34:25;;;;;;;0.20;0.20;;;14.20;99.90;;;;;;5042817;28;20029;-67
2023/09/01 00:36:52;;;;;;;0.00;0.00;;;14.20;99.90;;;;;;5027616;28;20044;-67
2023/09/01 00:39:18;;;;;;;0.40;0.40;;;14.10;99.90;;;;;;5031044;28;20053;-67
2023/09/01 00:41:43;;;;;;;0.30;0.30;;;14.10;99.90;;;;;;5041321;28;20037;-67
2023/09/01 00:44:13;;;;;;;0.53;0.30;;;14.10;99.90;;;;;;5052928;28;20446;-67
2023/09/01 00:46:43;;;;;;;0.47;0.47;;;14.00;99.90;;;;;;5028237;28;20078;-67
2023/09/01 00:49:10;;;;;;;0.00;0.00;;;13.90;99.90;;;;;;5044573;28;20405;-67
2023/09/01 00:51:36;;;;;;;0.10;0.10;;;13.90;99.90;;;;;;5041362;28;20033;-67
2023/09/01 00:54:03;;;;;;;2.08;0.35;;;14.00;99.90;;;;;;5044748;28;20032;-67
2023/09/01 00:56:29;;;;;;;;;;;14.00;99.90;;;;;;5036530;28;20026;-67
2023/09/01 00:58:54;;;;;;;0.20;0.20;;;14.00;99.90;;;;;;5042086;28;19917;-67
2023/09/01 01:01:20;;;;;;;2.63;0.37;;;14.00;99.90;;;;;;5040589;28;20297;-75
2023/09/01 01:03:49;;;;;;;0.30;0.30;;;14.00;99.90;;;;;;5035155;28;20044;-67
2023/09/01 01:06:39;;;;;;;0.13;0.13;;;14.00;99.90;;;;;;5034776;28;20030;-67
2023/09/01 01:09:20;;;;;;;0.10;0.10;;;14.00;99.90;;;;;;5023078;28;20049;-67
2023/09/01 01:12:12;;;;;;;0.10;0.10;;;14.00;99.90;;;;;;5048876;28;20021;-67
2023/09/01 01:14:48;;;;;;;0.28;0.28;;;13.90;99.90;;;;;;5040053;28;20038;-67
2023/09/01 01:17:18;;;;;;;0.17;0.17;;;13.90;99.90;;;;;;5036455;28;20361;-67
2023/09/01 01:19:53;;;;;;;0.32;0.32;;;13.90;99.90;;;;;;5033085;28;20451;-67
2023/09/01 01:22:46;;;;;;;0.85;0.50;;;13.90;99.90;;;;;;5044642;28;20040;-67
2023/09/01 01:25:13;;;;;;;0.55;0.55;;;13.90;99.90;;;;;;5047056;28;20336;-67
2023/09/01 01:27:41;;;;;;;0.00;0.00;;;14.00;99.90;;;;;;5048559;28;20420;-67
2023/09/01 01:30:09;;;;;;;0.20;0.15;;;14.10;99.90;;;;;;5047600;28;20022;-68
2023/09/01 01:32:36;;;;;;;0.57;0.57;;;14.10;99.90;;;;;;5039578;28;20022;-67
2023/09/01 01:35:24;;;;;;;0.98;0.73;;;14.20;99.90;;;;;;5034766;28;20042;-67
2023/09/01 01:38:13;;;;;;;0.52;0.52;;;14.10;99.90;;;;;;5038968;28;20032;-67
2023/09/01 01:40:42;;;;;;;0.38;0.38;;;14.10;99.90;;;;;;5040096;28;20298;-67
2023/09/01 01:43:10;;;;;;;4.85;1.15;;;14.00;99.90;;;;;;5021121;28;20026;-67
2023/09/01 01:45:40;;;;;;;0.10;0.10;;;14.00;99.90;;;;;;5034152;28;20451;-67
2023/09/01 01:48:06;;;;;;;0.10;0.10;;;14.00;99.90;;;;;;5029464;28;20072;-67
2023/09/01 01:50:32;;;;;;;0.40;0.40;;;14.00;99.90;;;;;;5036616;28;20033;-67
2023/09/01 01:52:58;;;;;;;0.20;0.20;;;14.00;99.90;;;;;;5026978;28;20013;-67
2023/09/01 01:55:24;;;;;;;0.30;0.30;;;14.10;99.90;;;;;;5047848;28;20033;-67
2023/09/01 01:57:50;;;;;;;0.07;0.07;;;14.20;99.90;;;;;;5039597;28;20090;-67
2023/09/01 02:00:16;;;;;;;0.10;0.10;;;14.20;99.90;;;;;;5041766;28;20037;-67
2023/09/01 02:02:44;;;;;;;2.13;1.30;;;14.20;99.90;;;;;;5039304;28;20184;-67
2023/09/01 02:05:10;;;;;;;0.75;0.57;;;14.20;99.90;;;;;;5039869;28;20056;-67
2023/09/01 02:07:36;;;;;;;0.40;0.40;;;14.20;99.90;;;;;;5054865;28;20053;-67
2023/09/01 02:10:06;;;;;;;4.83;0.50;;;14.10;99.90;;;;;;5029822;28;20047;-67
2023/09/01 02:12:34;;;;;;;0.35;0.35;;;14.10;99.90;;;;;;5047596;28;20057;-67
2023/09/01 02:15:01;;;;;;;6.43;1.02;;;14.10;99.90;;;;;;5041477;28;20025;-75
2023/09/01 02:17:27;;;;;;;0.20;0.20;;;14.10;99.90;;;;;;5046794;28;20392;-67
2023/09/01 02:19:52;;;;;;;0.43;0.30;;;14.10;99.90;;;;;;5032945;28;20049;-67
2023/09/01 02:22:18;;;;;;;0.97;0.40;;;14.10;99.90;;;;;;5047211;28;20029;-67
2023/09/01 02:24:44;;;;;;;0.37;0.37;;;14.10;99.90;;;;;;5037098;28;20305;-67
2023/09/01 02:27:09;;;;;;;0.40;0.40;;;14.10;99.90;;;;;;5048032;28;20036;-67
2023/09/01 02:29:35;;;;;;;2.07;0.57;;;14.00;99.90;;;;;;5045770;28;20030;-68
2023/09/01 02:32:01;;;;;;;1.87;0.60;;;13.90;99.90;;;;;;5040816;28;20033;-75
2023/09/01 02:34:27;;;;;;;1.08;0.98;;;13.80;99.90;;;;;;5035684;28;20025;-67
2023/09/01 02:36:53;;;;;;;0.10;0.10;;;13.70;99.90;;;;;;5041312;28;20025;-67
2023/09/01 02:39:19;;;;;;;0.13;0.13;;;13.60;99.90;;;;;;5036434;28;20036;-67
2023/09/01 02:41:44;;;;;;;0.30;0.30;;;13.60;99.90;;;;;;5031106;28;20033;-75
2023/09/01 02:44:10;;;;;;;0.13;0.13;;;13.60;99.90;;;;;;5036359;28;20026;-67
2023/09/01 02:46:36;;;;;;;0.60;0.50;;;13.60;99.90;;;;;;5038175;28;20025;-67
2023/09/01 02:49:02;;;;;;;0.57;0.30;;;13.60;99.90;;;;;;5037352;28;20091;-76
2023/09/01 02:51:27;;;;;;;0.10;0.10;;;13.70;99.90;;;;;;5036124;28;20141;-67
2023/09/01 02:53:53;;;;;;;0.83;0.67;;;13.70;99.90;;;;;;5037106;28;20017;-67
2023/09/01 02:56:19;;;;;;;0.80;0.80;;;13.80;99.90;;;;;;5049543;28;20037;-67
2023/09/01 02:58:45;;;;;;;0.77;0.73;;;13.80;99.90;;;;;;5045419;28;20021;-75
2023/09/01 03:01:11;;;;;;;0.22;0.20;;;13.80;99.90;;;;;;5041570;28;20363;-67
2023/09/01 03:03:40;;;;;;;0.63;0.63;;;13.80;99.90;;;;;;5034656;28;20116;-67
2023/09/01 03:06:08;;;;;;;0.55;0.30;;;13.80;99.90;;;;;;5038033;28;20034;-67
2023/09/01 03:08:34;;;;;;;0.43;0.43;;;13.80;99.90;;;;;;5031969;28;20024;-75
2023/09/01 03:11:01;;;;;;;0.47;0.47;;;13.90;99.90;;;;;;5035938;28;20040;-67
2023/09/01 03:13:27;;;;;;;0.28;0.28;;;14.00;99.90;;;;;;5033313;28;20029;-67
2023/09/01 03:15:54;;;;;;;4.05;1.27;;;14.10;99.90;;;;;;5030186;28;20017;-67
2023/09/01 03:18:20;;;;;;;0.35;0.30;;;14.10;99.90;;;;;;5051653;28;20049;-67
2023/09/01 03:20:46;;;;;;;0.50;0.40;;;14.00;99.90;;;;;;5042237;28;20067;-67
2023/09/01 03:23:11;;;;;;;0.60;0.53;;;14.00;99.90;;;;;;5032883;28;20061;-67
2023/09/01 03:25:37;;;;;;;5.73;0.90;;;14.10;99.90;;;;;;5053111;28;20045;-67
2023/09/01 03:28:03;;;;;;;0.17;0.17;;;14.20;99.90;;;;;;5042372;28;20037;-67
2023/09/01 03:30:29;;;;;;;0.53;0.53;;;14.30;99.90;;;;;;5037478;28;20033;-67
2023/09/01 03:32:54;;;;;;;0.50;0.50;;;14.30;99.90;;;;;;5033730;28;20079;-75
2023/09/01 03:35:20;;;;;;;3.33;1.27;;;14.30;99.90;;;;;;5037490;28;20067;-67
2023/09/01 03:37:46;;;;;;;0.30;0.30;;;14.20;99.90;;;;;;5055286;28;20052;-67
2023/09/01 03:40:12;;;;;;;0.55;0.43;;;14.20;99.90;;;;;;5057396;28;20029;-67
2023/09/01 03:42:39;;;;;;;0.10;0.10;;;14.20;99.90;;;;;;5038715;28;20033;-67
2023/09/01 03:45:05;;;;;;;0.30;0.30;;;14.10;99.90;;;;;;5057439;28;20036;-67
2023/09/01 03:47:31;;;;;;;1.08;0.32;;;14.00;99.90;;;;;;5056197;28;20029;-67
2023/09/01 03:49:57;;;;;;;1.92;0.98;;;13.90;99.90;;;;;;5053792;28;20020;-70
2023/09/01 03:52:23;;;;;;;0.53;0.53;;;13.90;99.90;;;;;;5040800;28;20013;-67
2023/09/01 03:54:49;;;;;;;0.43;0.43;;;13.90;99.90;;;;;;5040486;28;20021;-67
2023/09/01 03:57:15;;;;;;;0.33;0.33;;;14.00;99.90;;;;;;5048871;28;20034;-67
2023/09/01 03:59:42;;;;;;;0.52;0.43;;;14.10;99.90;;;;;;5052835;28;20017;-67
2023/09/01 04:02:08;;;;;;;0.30;0.30;;;14.00;99.90;;;;;;5057065;28;20033;-67
2023/09/01 04:04:34;;;;;;;0.90;0.90;;;14.00;99.90;;;;;;5042037;28;20040;-67
2023/09/01 04:07:00;;;;;;;0.10;0.10;;;13.90;99.90;;;;;;5044426;28;20025;-74
2023/09/01 04:09:25;;;;;;;2.23;0.73;;;13.90;99.90;;;;;;5043909;28;20037;-67
2023/09/01 04:11:51;;;;;;;0.43;0.43;;;13.80;99.90;;;;;;5050021;28;20029;-67
2023/09/01 04:14:16;;;;;;;0.10;0.10;;;13.90;99.90;;;;;;5030461;28;20059;-67
2023/09/01 04:16:42;;;;;;;0.43;0.43;;;13.80;99.90;;;;;;5028421;28;20029;-75
2023/09/01 04:19:08;;;;;;;0.80;0.70;;;13.80;99.90;;;;;;5054931;28;20104;-67
2023/09/01 04:21:34;;;;;;;2.33;1.30;;;13.80;99.90;;;;;;5039853;28;20033;-67
2023/09/01 04:23:59;;;;;;;0.73;0.73;;;13.80;99.90;;;;;;5049687;28;20032;-67
2023/09/01 04:26:25;;;;;;;0.87;0.73;;;13.80;99.90;;;;;;5039571;28;20045;-67
2023/09/01 04:28:51;;;;;;;0.40;0.40;;;13.90;99.90;;;;;;5050192;28;20108;-67
2023/09/01 04:31:30;;;;;;;0.30;0.30;;;14.10;99.90;;;;;;5043328;28;20099;-67
2023/09/01 04:33:56;;;;;;;1.65;0.85;;;14.10;99.90;;;;;;5042405;28;20026;-67
2023/09/01 04:36:23;;;;;;;0.10;0.10;;;14.10;99.90;;;;;;5046374;28;20024;-67
2023/09/01 04:38:49;;;;;;;5.38;1.05;;;14.00;99.90;;;;;;5056023;28;20029;-67
2023/09/01 04:41:15;;;;;;;2.50;1.00;;;13.90;99.90;;;;;;5055375;28;20320;-74
2023/09/01 04:43:41;;;;;;;1.93;0.40;;;13.90;99.90;;;;;;5044829;28;20049;-67
2023/09/01 04:46:06;;;;;;;0.40;0.40;;;13.90;99.90;;;;;;5040031;28;20033;-67
2023/09/01 04:48:34;;;;;;;0.63;0.63;;;13.90;99.90;;;;;;5044930;28;20025;-67
2023/09/01 04:51:02;;;;;;;0.50;0.50;;;14.00;99.90;;;;;;5053117;28;20021;-67
2023/09/01 04:53:28;;;;;;;0.32;0.20;;;14.20;99.90;;;;;;5031368;28;20017;-67
2023/09/01 04:55:54;;;;;;;0.57;0.57;;;14.20;99.90;;;;;;5049353;28;20099;-67
2023/09/01 04:58:20;;;;;;;0.67;0.40;;;14.30;99.90;;;;;;5036627;28;20546;-67
2023/09/01 05:00:45;;;;;;;1.50;1.40;;;14.30;99.90;;;;;;5031549;28;20017;-67
2023/09/01 05:03:11;;;;;;;1.30;0.83;;;14.30;99.90;;;;;;5029636;28;20026;-67
2023/09/01 05:05:37;;;;;;;0.17;0.17;;;14.30;99.90;;;;;;5034990;28;20308;-67
2023/09/01 05:08:03;;;;;;;1.13;1.13;;;14.30;99.90;;;;;;5033416;28;20021;-76
2023/09/01 05:10:29;;;;;;;1.20;0.57;;;14.30;99.90;;;;;;5030537;28;20026;-67
2023/09/01 05:12:55;;;;;;;0.60;0.60;;;14.30;99.90;;;;;;5027276;28;20125;-67
2023/09/01 05:15:21;;;;;;;0.30;0.30;;;14.30;99.90;;;;;;5034999;28;20678;-67
2023/09/01 05:17:47;;;;;;;0.53;0.53;;;14.20;99.90;;;;;;5042312;28;20116;-67
2023/09/01 05:20:12;;;;;;;0.10;0.10;;;14.20;99.90;;;;;;5031571;28;20745;-67
2023/09/01 05:22:38;;;;;;;8.43;2.43;;;14.20;99.90;;;;;;5031559;28;20040;-67
2023/09/01 05:25:04;;;;;;;1.43;1.30;;;14.20;99.90;;;;;;5045714;28;20493;-68
2023/09/01 05:27:30;;;;;;;0.95;0.95;;;14.30;99.90;;;;;;5036939;28;20052;-68
2023/09/01 05:29:56;;;;;;;2.03;1.50;;;14.30;99.90;;;;;;5031968;28;20030;-68
2023/09/01 05:32:22;;;;;;;1.13;0.73;;;14.30;99.90;;;;;;5033137;28;20021;-69
2023/09/01 05:34:48;;;;;;;1.55;0.80;;;14.30;99.90;;;;;;5043465;28;20053;-67
2023/09/01 05:37:14;;;;;;;1.45;0.30;;;14.30;99.90;;;;;;5055307;28;20029;-67
2023/09/01 05:39:41;;;;;;;1.10;0.70;;;14.30;99.90;;;;;;5035715;28;20029;-67
2023/09/01 05:42:07;;;;;;;1.95;0.73;;;14.20;99.90;;;;;;5034323;28;20037;-67
2023/09/01 05:44:33;;;;;;;;;;;14.20;99.90;;;;;;5053136;28;20090;-67
2023/09/01 05:46:59;;;;;;;6.38;0.90;;;14.20;99.90;;;;;;5038101;28;20237;-67
2023/09/01 05:49:25;;;;;;;2.90;0.43;;;14.20;99.90;;;;;;5039450;28;20068;-74
2023/09/01 05:51:51;;;;;;;0.53;0.50;;;14.20;99.90;;;;;;5032596;28;20058;-67
2023/09/01 05:54:18;;;;;;;0.50;0.50;;;14.30;99.90;;;;;;5047518;28;20024;-67
2023/09/01 05:56:44;;;;;;;2.65;1.23;;;14.40;99.90;;;;;;5054994;28;20319;-68
2023/09/01 05:59:10;;;;;;;0.10;0.10;;;14.40;99.90;;;;;;5041140;28;20029;-67
2023/09/01 06:01:36;;;;;;;0.80;0.80;;;14.50;99.90;;;;;;5030699;28;20355;-67
2023/09/01 06:04:05;;;;;;;1.02;0.93;;;14.50;99.90;;;;;;5054550;28;20028;-76
2023/09/01 06:06:32;;;;;;;4.50;1.00;;;14.60;99.90;;;;;;5039945;28;20029;-75
2023/09/01 06:09:01;;;;;;;0.80;0.80;;;14.70;99.90;;;;;;5050061;28;20018;-67
2023/09/01 06:11:29;;;;;;;18.52;1.20;;;14.60;99.90;;;;;;5039756;28;20029;-68
2023/09/01 06:13:55;;;;;;;1.85;0.80;;;14.60;99.90;;;;;;5034634;28;20021;-67
2023/09/01 06:16:21;;;;;;;0.67;0.33;;;14.60;99.90;;;;;;5034894;28;20436;-67
2023/09/01 06:18:47;;;;;;;0.77;0.50;;;14.60;99.90;;;;;;5037206;28;20030;-67
2023/09/01 06:21:15;;;;;;;4.47;1.40;;;14.50;99.90;;;;;;5040974;28;20029;-67
2023/09/01 06:23:44;;;;;;;0.10;0.10;;;14.50;99.90;;;;;;5039483;28;20029;-75
2023/09/01 06:26:14;;;;;;;0.90;0.90;;;14.50;99.90;;;;;;5038089;28;20437;-67
2023/09/01 06:28:40;;;;;;;0.30;0.30;;;14.50;99.90;;;;;;5036579;28;20060;-67
2023/09/01 06:31:09;;;;;;;1.02;0.88;;;14.50;99.90;;;;;;5037668;28;20026;-68
2023/09/01 06:33:37;;;;;;;0.73;0.73;;;14.50;99.90;;;;;;5036854;28;20136;-68
2023/09/01 06:36:05;;;;;;;0.15;0.15;;;14.50;99.90;;;;;;5039658;28;20022;-67
2023/09/01 06:38:30;;;;;;;4.80;0.52;;;14.60;99.90;;;;;;5037883;28;20413;-67
2023/09/01 06:40:56;;;;;;;0.40;0.40;;;14.60;99.90;;;;;;5040886;28;20021;-67
2023/09/01 06:43:22;;;;;;;0.23;0.23;;;14.60;99.90;;;;;;5037483;28;20409;-67
2023/09/01 06:45:47;;;;;;;0.20;0.20;;;14.60;99.90;;;;;;5033707;28;20442;-67
2023/09/01 06:48:13;;;;;;;0.60;0.47;;;14.60;99.90;;;;;;5046014;28;20491;-75
2023/09/01 06:50:39;;;;;;;0.93;0.93;;;14.70;99.90;;;;;;5044210;28;20092;-68
2023/09/01 06:53:05;;;;;;;1.17;1.02;;;14.70;99.90;;;;;;5042521;28;20029;-67
2023/09/01 06:55:31;;;;;;;2.60;0.70;;;14.70;99.90;;;;;;5041837;28;20037;-67
2023/09/01 06:57:57;;;;;;;0.30;0.30;;;14.80;99.90;;;;;;5051923;28;20028;-68
2023/09/01 07:00:22;;;;;;;0.87;0.73;;;14.80;99.90;;;;;;5048309;28;20097;-67
2023/09/01 07:02:48;;;;;;;0.40;0.40;;;14.80;99.90;;;;;;5048772;28;20025;-67
2023/09/01 07:05:16;;;;;;;10.60;1.37;;;14.80;99.90;;;;;;5039543;28;20144;-67
2023/09/01 07:07:42;;;;;;;1.58;0.77;;;14.90;99.90;;;;;;5044133;28;20033;-67
2023/09/01 07:10:08;;;;;;;0.77;0.77;;;14.90;99.90;;;;;;5049448;28;20013;-67
2023/09/01 07:12:34;;;;;;;0.45;0.45;;;14.90;99.90;;;;;;5050625;28;20108;-67
2023/09/01 07:15:00;;;;;;;0.20;0.20;;;14.90;99.90;;;;;;5052121;28;20103;-67
2023/09/01 07:17:26;;;;;;;;;;;15.00;99.90;;;;;;5044072;28;20095;-68
2023/09/01 07:19:52;;;;;;;0.43;0.43;;;15.00;99.90;;;;;;5040404;28;19944;-67
2023/09/01 07:22:17;;;;;;;0.37;0.37;;;15.10;99.90;;;;;;5029144;28;20712;-67
2023/09/01 07:24:43;;;;;;;0.80;0.73;;;15.10;99.90;;;;;;5053644;28;20049;-68
2023/09/01 07:27:09;;;;;;;3.13;0.90;;;15.20;99.90;;;;;;5043627;28;20357;-67
2023/09/01 07:29:34;;;;;;;2.63;0.93;;;15.30;99.90;;;;;;5042408;28;20172;-67
2023/09/01 07:32:00;;;;;;;0.40;0.40;;;15.30;99.90;;;;;;5041511;28;20360;-75
2023/09/01 07:34:26;;;;;;;0.93;0.80;;;15.40;99.90;;;;;;5036799;28;20020;-67
2023/09/01 07:36:52;;;;;;;0.47;0.47;;;15.50;99.90;;;;;;5052546;28;20036;-67
2023/09/01 07:39:18;;;;;;;0.25;0.22;;;15.50;99.90;;;;;;5046534;28;20031;-67
2023/09/01 07:41:44;;;;;;;1.57;0.93;;;15.60;99.90;;;;;;5038595;28;20033;-67
2023/09/01 07:44:09;;;;;;;6.93;1.90;;;15.70;99.90;;;;;;5038655;28;20108;-68
2023/09/01 07:46:35;;;;;;;2.50;0.83;;;15.70;99.90;;;;;;5051345;28;20029;-68
2023/09/01 07:49:02;;;;;;;2.90;1.57;;;15.80;99.90;;;;;;5043866;28;20080;-75
2023/09/01 07:51:28;;;;;;;2.85;0.65;;;15.90;99.90;;;;;;5041957;28;20022;-68
2023/09/01 07:53:54;;;;;;;1.10;0.93;;;15.90;99.90;;;;;;5040595;28;20044;-67
2023/09/01 07:56:21;;;;;;;1.20;1.05;;;16.00;99.90;;;;;;5036387;28;20022;-68
2023/09/01 07:58:46;;;;;;;1.02;0.93;;;16.00;99.90;;;;;;5036668;28;20025;-68
2023/09/01 08:01:12;;;;;;;1.97;1.87;;;16.00;99.90;;;;;;5036979;28;20101;-68
2023/09/01 08:03:38;;;;;;;5.53;2.63;;;16.00;99.90;;;;;;5036867;28;20417;-67
2023/09/01 08:06:04;;;;;;;0.30;0.27;;;16.00;99.90;;;;;;5039269;28;20021;-67
2023/09/01 08:08:30;;;;;;;4.28;0.75;;;16.10;99.90;;;;;;5039630;28;20017;-68
2023/09/01 08:10:56;;;;;;;0.98;0.98;;;16.10;99.90;;;;;;5052072;28;20068;-68
2023/09/01 08:13:22;;;;;;;3.07;1.90;;;16.10;99.90;;;;;;5049311;28;20036;-67
2023/09/01 08:15:48;;;;;;;0.70;0.70;;;16.10;99.90;;;;;;5045756;28;20025;-67
2023/09/01 08:18:14;;;;;;;0.55;0.55;;;16.10;99.90;;;;;;5041468;28;20503;-68
2023/09/01 08:20:40;;;;;;;0.70;0.70;;;16.20;99.90;;;;;;5036224;28;20120;-67
2023/09/01 08:23:06;;;;;;;1.55;1.08;;;16.20;99.90;;;;;;5045533;28;20021;-67
2023/09/01 08:25:34;;;;;;;0.90;0.90;;;16.20;99.90;;;;;;5050546;28;20416;-68
2023/09/01 08:28:00;;;;;;;1.02;0.73;;;16.20;99.90;;;;;;5040307;28;20057;-68
2023/09/01 08:30:26;;;;;;;16.87;2.17;;;16.20;99.90;;;;;;5044333;28;20071;-67
2023/09/01 08:32:52;;;;;;;1.15;1.05;;;16.30;99.90;;;;;;5025894;28;20028;-75
2023/09/01 08:35:18;;;;;;;2.47;1.73;;;16.30;99.90;;;;;;5039282;28;20025;-68
2023/09/01 08:37:43;;;;;;;0.80;0.40;;;16.30;99.90;;;;;;5036117;28;20028;-67
2023/09/01 08:40:10;;;;;;;0.20;0.20;;;16.30;99.90;;;;;;5034511;28;20044;-67
2023/09/01 08:42:41;;;;;;;;;;;16.20;99.90;;;;;;5034504;28;20027;-68
2023/09/01 08:45:08;;;;;;;2.70;0.77;;;16.20;99.90;;;;;;5053406;28;19905;-68
2023/09/01 08:47:42;;;;;;;0.30;0.28;;;16.30;99.90;;;;;;5049438;28;20032;-68
2023/09/01 08:50:08;;;;;;;0.85;0.60;;;16.30;99.90;;;;;;5047485;28;20028;-67
2023/09/01 08:52:35;;;;;;;1.30;0.60;;;16.40;99.90;;;;;;5046471;28;20098;-67
2023/09/01 08:55:02;;;;;;;1.85;1.00;;;16.40;99.90;;;;;;5048058;28;20049;-67
2023/09/01 08:57:27;;;;;;;0.88;0.73;;;16.50;99.90;;;;;;5054297;28;20120;-67
2023/09/01 08:59:53;;;;;;;0.60;0.60;;;16.50;99.90;;;;;;5038477;28;20112;-68
2023/09/01 09:02:19;;;;;;;0.77;0.77;;;16.50;99.90;;;;;;5050900;28;20315;-68
2023/09/01 09:04:47;;;;;;;1.23;0.87;;;16.50;99.90;;;;;;5048919;28;20036;-67
2023/09/01 09:07:18;;;;;;;0.73;0.73;;;16.60;99.90;;;;;;5050597;28;20063;-68
2023/09/01 09:09:58;;;;;;;1.73;0.80;;;16.60;99.90;;;;;;5043674;28;20025;-67
2023/09/01 09:12:34;;;;;;;1.25;0.88;;;16.60;99.90;;;;;;5046260;28;20026;-75
2023/09/01 09:15:00;;;;;;;0.95;0.95;;;16.60;99.90;;;;;;5043280;28;20324;-68
2023/09/01 09:17:45;;;;;;;6.43;1.08;;;16.70;99.90;;;;;;5035268;28;20048;-67
2023/09/01 09:20:13;;;;;;;0.40;0.40;;;16.70;99.90;;;;;;5027370;28;20096;-68
2023/09/01 09:22:53;;;;;;;0.60;0.60;;;16.70;99.90;;;;;;5039950;28;20031;-68
2023/09/01 09:25:28;;;;;;;2.65;1.27;;;16.70;99.90;;;;;;5047562;28;20036;-68
2023/09/01 09:28:00;;;;;;;1.75;1.00;;;16.60;99.90;;;;;;5038108;28;20060;-68
2023/09/01 09:30:26;;;;;;;1.75;0.60;;;16.60;99.90;;;;;;5043313;28;20025;-68
2023/09/01 09:33:06;;;;;;;0.85;0.77;;;16.60;99.90;;;;;;5036362;28;20076;-68
2023/09/01 09:35:35;;;;;;;4.00;0.57;;;16.60;99.90;;;;;;5046573;28;20021;-68
2023/09/01 09:38:01;;;;;;;2.60;1.05;;;16.60;99.90;;;;;;5032686;28;20320;-68
2023/09/01 09:40:27;;;;;;;0.32;0.32;;;16.60;99.90;;;;;;5044687;28;20021;-68
2023/09/01 09:43:00;;;;;;;2.38;1.08;;;16.60;99.90;;;;;;5038847;28;20079;-68
2023/09/01 09:45:32;;;;;;;4.05;1.33;;;16.60;99.90;;;;;;5045372;28;20108;-68
2023/09/01 09:48:06;;;;;;;2.95;1.10;;;16.60;99.90;;;;;;5044693;28;20034;-68
2023/09/01 09:50:34;;;;;;;5.82;0.93;;;16.60;99.90;;;;;;5038400;28;20416;-67
2023/09/01 09:53:04;;;;;;;0.95;0.95;;;16.60;99.90;;;;;;5041042;28;20025;-68
2023/09/01 09:55:39;;;;;;;0.80;0.80;;;16.60;99.90;;;;;;5031812;28;20033;-68
2023/09/01 09:58:09;;;;;;;1.23;1.15;;;16.70;99.90;;;;;;5046853;28;20017;-67
2023/09/01 10:00:58;;;;;;;0.80;0.80;;;16.70;99.90;;;;;;5029380;28;20021;-68
2023/09/01 10:03:29;;;;;;;0.50;0.50;;;16.70;99.90;;;;;;5041005;28;20108;-67
2023/09/01 10:05:55;;;;;;;0.35;0.35;;;16.70;99.90;;;;;;5051880;28;20363;-68
2023/09/01 10:08:21;;;;;;;1.15;0.22;;;16.80;99.90;;;;;;5050050;28;20052;-68
2023/09/01 10:10:49;;;;;;;0.73;0.20;;;16.90;99.90;;;;;;5052942;28;20293;-68
2023/09/01 10:13:15;;;;;;;3.55;0.77;;;16.80;99.90;;;;;;5048941;28;20021;-68
2023/09/01 10:15:42;;;;;;;2.05;0.45;;;16.90;99.90;;;;;;5039905;28;20057;-75
2023/09/01 10:18:08;;;;;;;;;;;17.10;99.90;;;;;;5039441;28;20048;-68
2023/09/01 10:20:36;;;;;;;0.57;0.55;;;17.20;99.90;;;;;;5038702;28;20011;-77
2023/09/01 10:23:07;;;;;;;0.40;0.40;;;17.20;99.90;;;;;;5034033;28;20037;-74
2023/09/01 10:25:34;;;;;;;0.68;0.68;;;17.20;99.90;;;;;;5027401;28;20037;-75
2023/09/01 10:28:13;;;;;;;0.55;0.50;;;17.30;99.90;;;;;;5037825;28;20441;-68
2023/09/01 10:30:40;;;;;;;1.08;0.70;;;17.40;99.90;;;;;;5038522;28;20024;-69
2023/09/01 10:33:06;;;;;;;3.13;2.35;;;17.40;99.90;;;;;;5037370;28;20026;-70
2023/09/01 10:35:50;;;;;;;9.40;2.43;;;17.50;99.90;;;;;;5045163;28;20075;-75
2023/09/01 10:38:34;;;;;;;8.68;0.82;;;17.60;99.90;;;;;;5037209;28;20372;-74
2023/09/01 10:41:00;;;;;;;0.40;0.40;;;17.70;99.90;;;;;;5035358;28;20044;-74
2023/09/01 10:43:37;;;;;;;0.67;0.50;;;17.70;99.90;;;;;;5033411;28;20033;-69
2023/09/01 10:46:12;;;;;;;1.33;1.23;;;17.80;99.90;;;;;;5035419;28;20412;-68
2023/09/01 10:48:48;;;;;;;1.92;1.08;;;17.80;99.90;;;;;;5036607;28;20430;-68
2023/09/01 10:51:14;;;;;;;;;;;17.90;99.90;;;;;;5035467;28;20412;-67
2023/09/01 10:53:40;;;;;;;0.08;0.08;;;17.80;99.90;;;;;;5038602;28;19913;-68
2023/09/01 10:56:10;;;;;;;0.33;0.33;;;17.90;99.90;;;;;;5037516;28;20021;-68
2023/09/01 10:58:50;;;;;;;0.68;0.68;;;18.10;99.90;;;;;;5047622;28;20017;-68
2023/09/01 11:01:34;;;;;;;6.57;0.82;;;18.30;99.90;;;;;;5030951;28;20113;-68
2023/09/01 11:04:21;;;;;;;0.85;0.85;;;18.40;99.90;;;;;;5036551;28;20030;-68
2023/09/01 11:06:56;;;;;;;1.73;0.45;;;18.50;99.90;;;;;;5040378;28;20075;-68
2023/09/01 11:09:23;;;;;;;2.00;1.48;;;18.60;99.90;;;;;;5047699;28;20033;-68
2023/09/01 11:11:52;;;;;;;1.08;0.98;;;18.60;99.90;;;;;;5048674;28;20071;-68
2023/09/01 11:14:21;;;;;;;2.83;1.55;;;18.50;99.90;;;;;;5050517;28;20078;-68
2023/09/01 11:16:47;;;;;;;1.20;0.98;;;18.50;99.90;;;;;;5029261;28;20315;-69
2023/09/01 11:19:13;;;;;;;0.30;0.30;;;18.40;99.90;;;;;;5040237;28;20025;-68
2023/09/01 11:21:40;;;;;;;0.43;0.10;;;18.40;99.90;;;;;;5042753;28;20435;-68
2023/09/01 11:24:07;;;;;;;0.10;0.10;;;18.40;99.90;;;;;;5049335;28;20427;-68
2023/09/01 11:26:36;;;;;;;0.52;0.25;;;18.50;99.90;;;;;;5041683;28;20033;-68
2023/09/01 11:29:06;;;;;;;0.20;0.20;;;18.50;99.90;;;;;;5037458;28;20025;-75
2023/09/01 11:31:39;;;;;;;0.22;0.22;;;18.50;99.90;;;;;;5046165;28;20432;-68
2023/09/01 11:34:05;;;;;;;0.45;0.45;;;18.50;99.90;;;;;;5048734;28;20730;-68
2023/09/01 11:36:31;;;;;;;1.38;0.82;;;18.40;99.90;;;;;;5051553;28;20091;-68
2023/09/01 11:38:57;;;;;;;3.40;0.80;;;18.30;99.90;;;;;;5051051;28;20051;-68
2023/09/01 11:41:24;;;;;;;0.30;0.30;;;18.30;99.90;;;;;;5036046;28;20017;-68
2023/09/01 11:43:50;;;;;;;0.35;0.35;;;18.20;99.90;;;;;;5038955;28;20029;-68
2023/09/01 11:46:16;;;;;;;1.10;0.77;;;18.30;99.90;;;;;;5043824;28;20029;-68
2023/09/01 11:48:46;;;;;;;3.42;0.77;;;18.20;99.90;;;;;;5043010;28;20037;-68
2023/09/01 11:51:12;;;;;;;0.50;0.50;;;18.30;99.90;;;;;;5042211;28;20029;-68
2023/09/01 11:53:38;;;;;;;0.47;0.45;;;18.30;99.90;;;;;;5043346;28;20379;-69
2023/09/01 11:56:22;;;;;;;1.15;1.05;;;18.30;99.90;;;;;;5049557;28;20124;-68
2023/09/01 11:58:49;;;;;;;3.15;0.50;;;18.20;99.90;;;;;;5046323;28;20071;-68
2023/09/01 12:01:19;;;;;;;0.55;0.55;;;18.20;99.90;;;;;;5036877;28;20017;-68
2023/09/01 12:03:53;;;;;;;3.33;1.65;;;18.20;99.90;;;;;;5046802;28;20475;-68
2023/09/01 12:06:22;;;;;;;0.22;0.20;;;18.20;99.90;;;;;;5048440;28;20021;-68
2023/09/01 12:09:08;;;;;;;2.80;1.30;;;18.20;99.90;;;;;;5052278;28;20335;-68
2023/09/01 12:11:34;;;;;;;;;;;18.30;99.90;;;;;;5050439;28;20140;-68
2023/09/01 12:14:20;;;;;;;1.30;1.20;;;18.30;99.90;;;;;;5047642;28;20003;-68
2023/09/01 12:16:52;;;;;;;0.30;0.22;;;18.20;99.90;;;;;;5029858;28;20705;-68
2023/09/01 12:19:20;;;;;;;0.47;0.47;;;18.20;99.90;;;;;;5030172;28;20689;-68
2023/09/01 12:21:46;;;;;;;0.35;0.35;;;18.20;99.90;;;;;;5038024;28;20039;-68
2023/09/01 12:24:12;;;;;;;1.47;0.77;;;18.30;99.90;;;;;;5048949;28;20097;-68
2023/09/01 12:26:37;;;;;;;0.20;0.20;;;18.30;99.90;;;;;;5047906;28;20032;-75
2023/09/01 12:29:03;;;;;;;1.57;1.47;;;18.40;99.90;;;;;;5041133;28;20352;-68
2023/09/01 12:31:29;;;;;;;2.23;1.30;;;18.40;99.90;;;;;;5040129;28;20336;-68
2023/09/01 12:33:54;;;;;;;0.30;0.30;;;18.50;99.90;;;;;;5030993;28;20022;-68
2023/09/01 12:36:20;;;;;;;0.83;0.83;;;18.60;99.90;;;;;;5050884;28;20021;-76
2023/09/01 12:38:46;;;;;;;0.60;0.60;;;18.50;99.90;;;;;;5048950;28;20017;-69
2023/09/01 12:41:11;;;;;;;1.60;0.50;;;18.50;99.90;;;;;;5040996;28;20021;-68
2023/09/01 12:43:37;;;;;;;3.70;1.17;;;18.50;99.90;;;;;;5035900;28;20021;-68
2023/09/01 12:46:03;;;;;;;0.57;0.27;;;18.60;99.90;;;;;;5050558;28;20434;-68
2023/09/01 12:48:29;;;;;;;0.77;0.77;;;18.60;99.90;;;;;;5040711;28;20039;-68
2023/09/01 12:50:54;;;;;;;5.63;0.83;;;18.60;99.90;;;;;;5044847;28;20254;-68